createdAt,value
2019-03-16T00:02:06.501Z,9.59
2019-03-16T00:04:36.027Z,9.58
2019-03-16T00:07:06.015Z,9.54
2019-03-16T00:09:36.785Z,9.59
2019-03-16T00:12:06.942Z,9.55
2019-03-16T00:14:38.018Z,9.55
2019-03-16T00:17:08.979Z,9.57
2019-03-16T00:19:39.887Z,9.53
2019-03-16T00:22:09.126Z,9.53
2019-03-16T00:24:38.783Z,9.54
2019-03-16T00:27:09.195Z,9.56
2019-03-16T00:29:38.454Z,9.57
2019-03-16T00:32:13.322Z,9.58
2019-03-16T00:34:38.656Z,9.58
2019-03-16T00:37:09.555Z,9.55
2019-03-16T00:39:40.749Z,9.55
2019-03-16T00:42:10.667Z,9.56
2019-03-16T00:44:40.194Z,9.56
2019-03-16T00:47:24.618Z,9.56
2019-03-16T00:49:53.869Z,9.55
2019-03-16T00:52:23.811Z,9.56
2019-03-16T00:54:55.383Z,9.56
2019-03-16T00:57:24.851Z,9.57
2019-03-16T00:59:56.651Z,9.56
2019-03-16T01:02:27.550Z,9.57
2019-03-16T01:04:57.214Z,9.54
2019-03-16T01:07:26.458Z,9.56
2019-03-16T01:09:55.704Z,9.56
2019-03-16T01:12:27.193Z,9.57
2019-03-16T01:14:56.451Z,9.56
2019-03-16T01:17:25.878Z,9.56
2019-03-16T01:19:55.958Z,9.56
2019-03-16T01:22:25.167Z,9.57
2019-03-16T01:24:56.866Z,9.58
2019-03-16T01:27:26.649Z,9.60
2019-03-16T01:29:56.458Z,9.62
2019-03-16T01:32:40.023Z,9.64
2019-03-16T01:35:04.036Z,9.62
2019-03-16T01:37:35.354Z,9.61
2019-03-16T01:40:06.020Z,9.60
2019-03-16T01:42:35.065Z,9.59
2019-03-16T01:45:06.164Z,9.59
2019-03-16T01:47:35.648Z,9.58
2019-03-16T01:50:13.900Z,9.58
2019-03-16T01:52:54.494Z,9.59
2019-03-16T01:55:31.054Z,9.57
2019-03-16T01:58:03.500Z,9.57
2019-03-16T02:00:32.731Z,9.60
2019-03-16T02:03:09.602Z,9.59
2019-03-16T02:05:39.258Z,9.61
2019-03-16T02:08:10.052Z,9.61
2019-03-16T02:10:40.578Z,9.62
2019-03-16T02:13:10.993Z,9.60
2019-03-16T02:15:40.973Z,9.58
2019-03-16T02:18:10.943Z,9.60
2019-03-16T02:20:42.258Z,9.58
2019-03-16T02:23:11.460Z,9.57
2019-03-16T02:25:40.713Z,9.56
2019-03-16T02:28:10.838Z,9.55
2019-03-16T02:30:42.364Z,9.54
2019-03-16T02:33:13.795Z,9.51
2019-03-16T02:35:46.807Z,9.52
2019-03-16T02:38:17.015Z,9.52
2019-03-16T02:40:48.954Z,9.52
2019-03-16T02:43:20.166Z,9.55
2019-03-16T02:45:52.452Z,9.53
2019-03-16T02:48:21.681Z,9.53
2019-03-16T02:50:51.230Z,9.55
2019-03-16T02:53:20.881Z,9.55
2019-03-16T02:55:51.235Z,9.58
2019-03-16T02:58:22.736Z,9.57
2019-03-16T03:00:54.254Z,9.56
2019-03-16T03:03:29.739Z,9.55
2019-03-16T03:06:00.404Z,9.58
2019-03-16T03:08:29.616Z,9.56
2019-03-16T03:10:59.920Z,9.53
2019-03-16T03:13:34.243Z,9.56
2019-03-16T03:16:05.401Z,9.56
2019-03-16T03:18:35.184Z,9.54
2019-03-16T03:21:05.863Z,9.55
2019-03-16T03:23:35.105Z,9.57
2019-03-16T03:26:07.805Z,9.57
2019-03-16T03:28:37.429Z,9.55
2019-03-16T03:31:07.107Z,9.54
2019-03-16T03:33:57.962Z,9.55
2019-03-16T03:36:12.139Z,9.54
2019-03-16T03:38:47.883Z,9.51
2019-03-16T03:41:17.150Z,9.53
2019-03-16T03:43:46.650Z,9.51
2019-03-16T03:46:15.891Z,9.51
2019-03-16T03:48:46.444Z,9.55
2019-03-16T03:51:16.080Z,9.55
2019-03-16T03:53:47.562Z,9.59
2019-03-16T03:56:17.078Z,9.57
2019-03-16T03:58:47.016Z,9.57
2019-03-16T04:01:20.711Z,9.53
2019-03-16T04:03:50.035Z,9.51
2019-03-16T04:06:21.735Z,9.48
2019-03-16T04:08:50.957Z,9.48
2019-03-16T04:11:20.182Z,9.48
2019-03-16T04:13:50.334Z,9.49
2019-03-16T04:16:20.260Z,9.46
2019-03-16T04:18:52.079Z,9.42
2019-03-16T04:21:21.632Z,9.44
2019-03-16T04:23:50.967Z,9.44
2019-03-16T04:26:20.807Z,9.44
2019-03-16T04:28:52.145Z,9.43
2019-03-16T04:31:21.401Z,9.41
2019-03-16T04:33:50.659Z,9.42
2019-03-16T04:36:20.685Z,9.41
2019-03-16T04:38:51.988Z,9.40
2019-03-16T04:41:21.271Z,9.43
2019-03-16T04:43:50.877Z,9.41
2019-03-16T04:46:22.183Z,9.44
2019-03-16T04:48:51.406Z,9.41
2019-03-16T04:51:22.021Z,9.40
2019-03-16T04:53:51.527Z,9.42
2019-03-16T04:56:21.647Z,9.43
2019-03-16T04:58:53.832Z,9.42
2019-03-16T05:01:23.098Z,9.42
2019-03-16T05:03:55.587Z,9.38
2019-03-16T05:06:24.821Z,9.40
2019-03-16T05:08:54.065Z,9.39
2019-03-16T05:11:23.544Z,9.30
2019-03-16T05:13:54.970Z,9.19
2019-03-16T05:16:24.208Z,9.08
2019-03-16T05:18:53.429Z,8.90
2019-03-16T05:21:23.098Z,8.63
2019-03-16T05:23:54.262Z,8.74
2019-03-16T05:26:23.501Z,8.66
2019-03-16T05:28:53.970Z,8.57
2019-03-16T05:31:24.593Z,8.46
2019-03-16T05:33:55.258Z,8.49
2019-03-16T05:36:24.888Z,8.49
2019-03-16T05:38:54.103Z,8.49
2019-03-16T05:41:24.571Z,8.50
2019-03-16T05:43:54.580Z,8.45
2019-03-16T05:46:24.189Z,8.53
2019-03-16T05:48:53.437Z,8.66
2019-03-16T05:51:22.756Z,8.68
2019-03-16T05:53:53.314Z,8.61
2019-03-16T05:56:23.740Z,8.69
2019-03-16T05:58:53.315Z,8.61
2019-03-16T06:01:24.120Z,8.53
2019-03-16T06:03:53.449Z,8.51
2019-03-16T06:06:27.401Z,8.49
2019-03-16T06:08:56.836Z,8.44
2019-03-16T06:11:30.107Z,8.32
2019-03-16T06:13:59.321Z,8.12
2019-03-16T06:16:28.571Z,8.20
2019-03-16T06:18:59.017Z,8.16
2019-03-16T06:21:30.139Z,8.21
2019-03-16T06:23:59.397Z,8.14
2019-03-16T06:26:29.774Z,8.19
2019-03-16T06:28:59.335Z,8.29
2019-03-16T06:31:29.896Z,8.32
2019-03-16T06:33:59.167Z,8.36
2019-03-16T06:36:28.389Z,8.22
2019-03-16T06:39:00.346Z,8.27
2019-03-16T06:41:31.130Z,8.33
2019-03-16T06:44:02.817Z,8.31
2019-03-16T06:46:32.045Z,8.31
2019-03-16T06:49:03.067Z,8.22
2019-03-16T06:51:32.321Z,8.29
2019-03-16T06:54:01.861Z,8.19
2019-03-16T06:56:34.843Z,8.19
2019-03-16T06:59:04.548Z,8.19
2019-03-16T07:01:33.837Z,8.21
2019-03-16T07:04:04.087Z,8.18
2019-03-16T07:06:35.452Z,8.14
2019-03-16T07:09:07.296Z,8.14
2019-03-16T07:11:36.543Z,8.21
2019-03-16T07:14:06.124Z,8.28
2019-03-16T07:16:36.098Z,8.27
2019-03-16T07:19:05.341Z,8.25
2019-03-16T07:21:35.109Z,8.39
2019-03-16T07:24:04.662Z,8.31
2019-03-16T07:26:34.017Z,8.26
2019-03-16T07:29:04.655Z,8.16
2019-03-16T07:31:37.767Z,8.17
2019-03-16T07:34:10.604Z,8.24
2019-03-16T07:36:39.879Z,8.21
2019-03-16T07:39:14.265Z,8.23
2019-03-16T07:41:43.492Z,8.24
2019-03-16T07:44:12.688Z,8.29
2019-03-16T07:46:42.214Z,8.27
2019-03-16T07:49:11.777Z,8.20
2019-03-16T07:51:41.019Z,8.26
2019-03-16T07:54:10.298Z,8.36
2019-03-16T07:56:39.763Z,8.42
2019-03-16T07:59:08.998Z,8.46
2019-03-16T08:01:38.275Z,8.49
2019-03-16T08:04:07.782Z,8.51
2019-03-16T08:06:37.057Z,8.47
2019-03-16T08:09:07.699Z,8.44
2019-03-16T08:11:55.698Z,8.59
2019-03-16T08:14:26.199Z,8.54
2019-03-16T08:16:57.892Z,8.49
2019-03-16T08:19:27.142Z,8.50
2019-03-16T08:21:57.649Z,8.52
2019-03-16T08:24:29.085Z,8.56
2019-03-16T08:26:59.996Z,8.53
2019-03-16T08:29:31.201Z,8.55
2019-03-16T08:32:11.144Z,8.57
2019-03-16T08:34:43.516Z,8.64
2019-03-16T08:37:14.197Z,8.73
2019-03-16T08:39:43.724Z,8.66
2019-03-16T08:42:15.383Z,8.64
2019-03-16T08:44:44.938Z,8.62
2019-03-16T08:47:14.192Z,8.49
2019-03-16T08:49:44.223Z,8.54
2019-03-16T08:52:16.841Z,8.56
2019-03-16T08:54:46.111Z,8.48
2019-03-16T08:57:15.347Z,8.39
2019-03-16T08:59:44.950Z,8.34
2019-03-16T09:02:18.878Z,8.44
2019-03-16T09:04:50.943Z,8.60
2019-03-16T09:07:22.603Z,8.95
2019-03-16T09:09:52.144Z,9.08
2019-03-16T09:12:21.396Z,9.13
2019-03-16T09:14:50.972Z,9.20
2019-03-16T09:17:20.775Z,9.24
2019-03-16T09:19:50.286Z,9.34
2019-03-16T09:22:19.552Z,9.37
2019-03-16T09:24:50.003Z,9.39
2019-03-16T09:27:30.573Z,9.41
2019-03-16T09:29:54.654Z,9.44
2019-03-16T09:32:24.558Z,9.49
2019-03-16T09:34:54.261Z,9.51
2019-03-16T09:37:24.983Z,9.52
2019-03-16T09:39:54.992Z,9.55
2019-03-16T09:42:24.482Z,9.55
2019-03-16T09:44:55.949Z,9.57
2019-03-16T09:47:25.194Z,9.62
2019-03-16T09:49:54.432Z,9.61
2019-03-16T09:52:23.703Z,9.68
2019-03-16T09:54:54.172Z,9.75
2019-03-16T09:57:24.216Z,9.79
2019-03-16T09:59:55.976Z,9.85
2019-03-16T10:02:27.741Z,9.94
2019-03-16T10:04:57.185Z,10.02
2019-03-16T10:07:27.337Z,10.06
2019-03-16T10:09:56.553Z,10.11
2019-03-16T10:12:28.900Z,10.16
2019-03-16T10:14:59.230Z,10.23
2019-03-16T10:17:29.462Z,10.29
2019-03-16T10:19:58.713Z,10.30
2019-03-16T10:22:30.049Z,10.34
2019-03-16T10:24:59.286Z,10.36
2019-03-16T10:27:29.811Z,10.40
2019-03-16T10:29:59.379Z,10.43
2019-03-16T10:32:29.384Z,10.55
2019-03-16T10:34:59.924Z,10.53
2019-03-16T10:37:29.314Z,10.54
2019-03-16T10:39:58.901Z,10.48
2019-03-16T10:42:29.118Z,10.57
2019-03-16T10:44:59.535Z,10.73
2019-03-16T10:47:31.692Z,10.88
2019-03-16T10:50:03.458Z,10.84
2019-03-16T10:52:37.005Z,11.00
2019-03-16T10:55:06.970Z,11.03
2019-03-16T10:57:36.514Z,11.05
2019-03-16T11:00:08.640Z,10.99
2019-03-16T11:02:39.906Z,11.11
2019-03-16T11:05:09.134Z,11.19
2019-03-16T11:07:38.667Z,11.30
2019-03-16T11:10:12.061Z,11.30
2019-03-16T11:12:43.939Z,11.25
2019-03-16T11:15:13.154Z,11.19
2019-03-16T11:17:42.959Z,11.20
2019-03-16T11:20:12.828Z,11.17
2019-03-16T11:22:42.199Z,11.19
2019-03-16T11:25:12.642Z,11.11
2019-03-16T11:27:43.669Z,11.11
2019-03-16T11:30:14.236Z,11.13
2019-03-16T11:32:44.807Z,11.16
2019-03-16T11:35:17.371Z,11.23
2019-03-16T11:37:46.627Z,11.17
2019-03-16T11:40:21.526Z,11.18
2019-03-16T11:42:51.034Z,11.12
2019-03-16T11:45:20.527Z,11.15
2019-03-16T11:47:49.841Z,11.07
2019-03-16T11:50:19.386Z,11.09
2019-03-16T11:52:56.904Z,11.07
2019-03-16T11:55:26.136Z,11.08
2019-03-16T11:57:56.309Z,11.15
2019-03-16T12:00:27.580Z,11.19
2019-03-16T12:02:56.935Z,11.19
2019-03-16T12:05:26.814Z,11.27
2019-03-16T12:07:56.900Z,11.37
2019-03-16T12:10:26.344Z,11.34
2019-03-16T12:12:56.995Z,11.55
2019-03-16T12:15:27.089Z,11.70
2019-03-16T12:17:58.875Z,11.81
2019-03-16T12:20:28.493Z,11.76
2019-03-16T12:22:58.884Z,11.78
2019-03-16T12:25:31.793Z,11.78
2019-03-16T12:28:01.046Z,11.81
2019-03-16T12:30:30.853Z,11.74
2019-03-16T12:33:02.334Z,11.79
2019-03-16T12:35:31.541Z,11.86
2019-03-16T12:38:03.236Z,11.85
2019-03-16T12:40:34.753Z,11.91
2019-03-16T12:43:04.645Z,11.95
2019-03-16T12:45:33.851Z,11.90
2019-03-16T12:48:04.217Z,11.94
2019-03-16T12:50:33.440Z,12.04
2019-03-16T12:53:04.563Z,12.26
2019-03-16T12:55:35.111Z,12.45
2019-03-16T12:58:07.696Z,12.53
2019-03-16T13:00:37.194Z,12.63
2019-03-16T13:03:07.757Z,12.55
2019-03-16T13:05:40.646Z,12.50
2019-03-16T13:08:11.643Z,12.50
2019-03-16T13:10:44.583Z,12.63
2019-03-16T13:13:15.125Z,12.50
2019-03-16T13:15:44.642Z,12.42
2019-03-16T13:18:16.603Z,12.55
2019-03-16T13:20:50.392Z,12.53
2019-03-16T13:23:19.702Z,12.57
2019-03-16T13:25:49.958Z,12.63
2019-03-16T13:28:19.539Z,12.50
2019-03-16T13:30:49.560Z,12.52
2019-03-16T13:33:24.170Z,12.53
2019-03-16T13:35:53.378Z,12.58
2019-03-16T13:38:23.442Z,12.55
2019-03-16T13:40:56.050Z,12.56
2019-03-16T13:43:28.091Z,12.64
2019-03-16T13:45:59.427Z,12.79
2019-03-16T13:48:29.806Z,13.00
2019-03-16T13:51:07.252Z,13.13
2019-03-16T13:53:37.519Z,13.09
2019-03-16T13:56:07.208Z,13.03
2019-03-16T13:58:36.467Z,13.01
2019-03-16T14:01:05.686Z,13.15
2019-03-16T14:03:37.492Z,13.26
2019-03-16T14:06:07.328Z,13.24
2019-03-16T14:08:36.640Z,13.21
2019-03-16T14:11:08.091Z,13.21
2019-03-16T14:13:37.414Z,13.22
2019-03-16T14:16:07.250Z,13.31
2019-03-16T14:18:36.941Z,13.43
2019-03-16T14:21:06.290Z,13.64
2019-03-16T14:23:36.697Z,14.13
2019-03-16T14:26:09.713Z,15.21
2019-03-16T14:28:39.028Z,15.91
2019-03-16T14:31:09.344Z,15.91
2019-03-16T14:33:41.396Z,15.85
2019-03-16T14:36:10.711Z,16.03
2019-03-16T14:38:40.827Z,15.32
2019-03-16T14:41:09.901Z,14.60
2019-03-16T14:43:40.150Z,14.94
2019-03-16T14:46:12.217Z,14.88
2019-03-16T14:48:41.788Z,15.57
2019-03-16T14:51:11.124Z,15.42
2019-03-16T14:53:48.505Z,14.96
2019-03-16T14:56:17.733Z,14.62
2019-03-16T14:58:46.980Z,14.36
2019-03-16T15:01:24.143Z,14.11
2019-03-16T15:03:54.785Z,14.30
2019-03-16T15:06:24.061Z,14.23
2019-03-16T15:08:56.792Z,14.33
2019-03-16T15:11:27.288Z,14.35
2019-03-16T15:14:02.705Z,14.58
2019-03-16T15:16:34.804Z,14.61
2019-03-16T15:19:13.125Z,14.36
2019-03-16T15:21:43.824Z,14.36
2019-03-16T15:24:14.385Z,14.52
2019-03-16T15:26:44.245Z,14.98
2019-03-16T15:29:14.276Z,15.28
2019-03-16T15:31:43.740Z,14.94
2019-03-16T15:34:13.944Z,14.65
2019-03-16T15:36:43.862Z,14.16
2019-03-16T15:39:16.080Z,14.08
2019-03-16T15:41:47.900Z,13.87
2019-03-16T15:44:20.139Z,13.55
2019-03-16T15:46:50.186Z,13.50
2019-03-16T15:49:22.495Z,13.47
2019-03-16T15:51:51.740Z,13.43
2019-03-16T15:54:25.793Z,13.29
2019-03-16T15:56:57.923Z,13.25
2019-03-16T15:59:28.569Z,13.16
2019-03-16T16:01:57.800Z,13.16
2019-03-16T16:04:28.700Z,13.18
2019-03-16T16:06:59.591Z,13.14
2019-03-16T16:09:31.465Z,13.07
2019-03-16T16:12:01.223Z,13.06
2019-03-16T16:14:30.490Z,13.34
2019-03-16T16:16:59.729Z,13.90
2019-03-16T16:19:29.327Z,13.84
2019-03-16T16:22:03.246Z,13.83
2019-03-16T16:24:32.648Z,13.52
2019-03-16T16:27:02.100Z,13.28
2019-03-16T16:29:33.914Z,13.18
2019-03-16T16:32:06.817Z,13.06
2019-03-16T16:34:40.261Z,13.04
2019-03-16T16:37:11.232Z,13.03
2019-03-16T16:39:41.427Z,13.09
2019-03-16T16:42:12.267Z,13.19
2019-03-16T16:44:44.151Z,13.22
2019-03-16T16:47:14.687Z,13.22
2019-03-16T16:49:46.666Z,13.28
2019-03-16T16:52:19.545Z,13.20
2019-03-16T16:54:51.652Z,13.13
2019-03-16T16:57:25.393Z,13.05
2019-03-16T16:59:58.401Z,13.08
2019-03-16T17:02:28.324Z,13.04
2019-03-16T17:04:59.314Z,13.08
2019-03-16T17:07:31.059Z,13.15
2019-03-16T17:10:00.591Z,13.13
2019-03-16T17:12:37.993Z,13.06
2019-03-16T17:18:36.686Z,12.94
2019-03-16T17:21:06.268Z,12.75
2019-03-16T17:23:35.647Z,12.61
2019-03-16T17:26:05.146Z,12.54
2019-03-16T17:28:34.509Z,12.44
2019-03-16T17:31:06.856Z,12.31
2019-03-16T17:33:36.090Z,12.25
2019-03-16T17:36:05.484Z,12.14
2019-03-16T17:38:34.771Z,12.02
2019-03-16T17:41:04.584Z,11.93
2019-03-16T17:43:33.874Z,11.94
2019-03-16T17:46:03.685Z,11.84
2019-03-16T17:48:33.123Z,11.80
2019-03-16T17:51:02.593Z,11.72
2019-03-16T17:53:32.160Z,11.63
2019-03-16T17:56:02.222Z,11.52
2019-03-16T17:58:31.942Z,11.45
2019-03-16T18:01:01.504Z,11.36
2019-03-16T18:03:30.845Z,11.27
2019-03-16T18:06:00.274Z,11.19
2019-03-16T18:08:30.639Z,11.12
2019-03-16T18:10:59.972Z,11.04
2019-03-16T18:13:29.354Z,10.99
2019-03-16T18:16:01.661Z,10.86
2019-03-16T18:18:31.497Z,10.70
2019-03-16T18:21:00.893Z,10.52
2019-03-16T18:23:30.193Z,10.38
2019-03-16T18:26:00.110Z,10.25
2019-03-16T18:28:29.625Z,10.06
2019-03-16T18:30:59.067Z,9.94
2019-03-16T18:33:29.532Z,9.90
2019-03-16T18:35:59.919Z,9.71
2019-03-16T18:38:29.256Z,9.64
2019-03-16T18:40:58.970Z,9.66
2019-03-16T18:43:29.466Z,9.66
2019-03-16T18:45:59.120Z,9.62
2019-03-16T18:48:30.403Z,9.58
2019-03-16T18:50:59.544Z,9.42
2019-03-16T18:53:30.263Z,9.42
2019-03-16T18:55:59.541Z,9.40
2019-03-16T18:58:37.279Z,9.37
2019-03-16T19:01:00.970Z,9.29
2019-03-16T19:03:31.224Z,9.20
2019-03-16T19:06:00.475Z,9.13
2019-03-16T19:08:29.700Z,9.08
2019-03-16T19:10:58.948Z,8.98
2019-03-16T19:13:28.173Z,8.92
2019-03-16T19:15:59.179Z,8.86
2019-03-16T19:18:28.441Z,8.74
2019-03-16T19:20:57.797Z,8.67
2019-03-16T19:23:27.012Z,8.72
2019-03-16T19:25:58.457Z,8.71
2019-03-16T19:28:27.687Z,8.69
2019-03-16T19:30:57.023Z,8.67
2019-03-16T19:33:26.245Z,8.63
2019-03-16T19:35:55.498Z,8.54
2019-03-16T19:38:25.530Z,8.50
2019-03-16T19:40:55.134Z,8.47
2019-03-16T19:43:24.378Z,8.42
2019-03-16T19:45:53.662Z,8.38
2019-03-16T19:48:22.882Z,8.33
2019-03-16T19:50:52.159Z,8.28
2019-03-16T19:53:21.391Z,8.19
2019-03-16T19:55:50.699Z,8.08
2019-03-16T19:58:20.029Z,8.06
2019-03-16T20:00:49.298Z,8.02
2019-03-16T20:03:18.803Z,7.97
2019-03-16T20:05:48.265Z,7.96
2019-03-16T20:08:17.497Z,7.93
2019-03-16T20:10:46.760Z,7.65
2019-03-16T20:13:16.744Z,7.70
2019-03-16T20:15:45.996Z,7.66
2019-03-16T20:18:15.234Z,7.65
2019-03-16T20:20:44.489Z,7.63
2019-03-16T20:23:14.804Z,7.59
2019-03-16T20:25:44.075Z,7.65
2019-03-16T20:28:13.329Z,7.56
2019-03-16T20:30:42.572Z,7.54
2019-03-16T20:33:11.845Z,7.52
2019-03-16T20:35:41.885Z,7.45
2019-03-16T20:38:11.110Z,7.34
2019-03-16T20:40:40.351Z,7.39
2019-03-16T20:43:10.485Z,7.34
2019-03-16T20:45:39.799Z,7.33
2019-03-16T20:48:08.626Z,7.33
2019-03-16T20:50:38.487Z,7.33
2019-03-16T20:53:07.750Z,7.25
2019-03-16T20:55:37.133Z,7.23
2019-03-16T20:58:08.690Z,7.14
2019-03-16T21:00:37.932Z,7.11
2019-03-16T21:03:15.846Z,7.04
2019-03-16T21:05:38.218Z,7.06
2019-03-16T21:08:07.447Z,7.04
2019-03-16T21:10:36.670Z,7.05
2019-03-16T21:13:07.357Z,6.95
2019-03-16T21:15:37.174Z,6.88
2019-03-16T21:18:07.966Z,6.78
2019-03-16T21:20:38.421Z,6.80
2019-03-16T21:23:07.696Z,6.77
2019-03-16T21:25:38.177Z,6.76
2019-03-16T21:28:07.424Z,6.72
2019-03-16T21:30:36.683Z,6.72
2019-03-16T21:33:05.974Z,6.68
2019-03-16T21:35:35.558Z,6.69
2019-03-16T21:38:04.819Z,6.62
2019-03-16T21:40:34.119Z,6.63
2019-03-16T21:43:03.407Z,6.57
2019-03-16T21:45:32.660Z,6.48
2019-03-16T21:48:01.938Z,6.44
2019-03-16T21:50:31.454Z,6.38
2019-03-16T21:53:00.717Z,6.40
2019-03-16T21:55:30.761Z,6.43
2019-03-16T21:58:03.482Z,6.41
2019-03-16T22:00:32.936Z,6.38
2019-03-16T22:03:02.197Z,6.34
2019-03-16T22:05:31.447Z,6.23
2019-03-16T22:08:00.698Z,6.23
2019-03-16T22:10:30.802Z,6.10
2019-03-16T22:13:00.282Z,5.99
2019-03-16T22:15:29.508Z,5.97
2019-03-16T22:17:59.779Z,5.95
2019-03-16T22:20:29.008Z,5.95
2019-03-16T22:22:58.262Z,5.93
2019-03-16T22:25:28.216Z,5.92
2019-03-16T22:27:57.741Z,5.95
2019-03-16T22:30:28.242Z,5.92
2019-03-16T22:32:57.297Z,5.81
2019-03-16T22:35:26.514Z,5.77
2019-03-16T22:37:57.762Z,5.67
2019-03-16T22:40:27.575Z,5.67
2019-03-16T22:42:58.371Z,5.64
2019-03-16T22:45:27.956Z,5.70
2019-03-16T22:47:57.289Z,5.65
2019-03-16T22:50:26.573Z,5.58
2019-03-16T22:52:56.525Z,5.47
2019-03-16T22:55:26.098Z,5.47
2019-03-16T22:57:55.446Z,5.51
2019-03-16T23:00:28.845Z,5.42
2019-03-16T23:02:58.145Z,5.46
2019-03-16T23:05:28.183Z,5.45
2019-03-16T23:07:57.459Z,5.42
2019-03-16T23:10:26.735Z,5.45
2019-03-16T23:12:58.242Z,5.46
2019-03-16T23:15:27.639Z,5.44
2019-03-16T23:17:58.673Z,5.37
2019-03-16T23:20:28.242Z,5.36
2019-03-16T23:22:57.871Z,5.36
2019-03-16T23:25:27.414Z,5.39
2019-03-16T23:27:57.168Z,5.27
2019-03-16T23:30:28.536Z,5.23
2019-03-16T23:32:58.025Z,5.24
2019-03-16T23:35:27.821Z,5.26
2019-03-16T23:37:57.074Z,5.26
2019-03-16T23:40:26.298Z,5.30
2019-03-16T23:42:56.985Z,5.29
2019-03-16T23:45:27.072Z,5.23
2019-03-16T23:47:56.335Z,5.23
2019-03-16T23:50:25.600Z,5.19
2019-03-16T23:52:55.627Z,5.11
2019-03-16T23:55:25.184Z,5.07
2019-03-16T23:57:56.331Z,5.01
